sensor_id;sensor_type;location;lat;lon;timestamp;P1;durP1;ratioP1;P2;durP2;ratioP2
13228;SDS011;6680;53.220;10.402;2022-11-15T00:01:58;20.43;;;12.27;;
13228;SDS011;6680;53.220;10.402;2022-11-15T00:04:26;21.00;;;13.30;;
13228;SDS011;6680;53.220;10.402;2022-11-15T00:06:52;21.57;;;12.80;;
13228;SDS011;6680;53.220;10.402;2022-11-15T00:09:19;25.23;;;12.63;;
13228;SDS011;6680;53.220;10.402;2022-11-15T00:11:46;26.80;;;13.93;;
13228;SDS011;6680;53.220;10.402;2022-11-15T00:14:12;22.90;;;13.20;;
13228;SDS011;6680;53.220;10.402;2022-11-15T00:16:39;23.13;;;13.07;;
13228;SDS011;6680;53.220;10.402;2022-11-15T00:19:06;22.47;;;12.70;;
13228;SDS011;6680;53.220;10.402;2022-11-15T00:21:34;22.27;;;13.80;;
13228;SDS011;6680;53.220;10.402;2022-11-15T00:24:00;24.90;;;13.47;;
13228;SDS011;6680;53.220;10.402;2022-11-15T00:26:27;22.33;;;12.50;;
13228;SDS011;6680;53.220;10.402;2022-11-15T00:28:54;20.87;;;12.70;;
13228;SDS011;6680;53.220;10.402;2022-11-15T00:31:20;25.13;;;13.50;;
13228;SDS011;6680;53.220;10.402;2022-11-15T00:33:47;22.60;;;12.93;;
13228;SDS011;6680;53.220;10.402;2022-11-15T00:36:13;20.23;;;12.17;;
13228;SDS011;6680;53.220;10.402;2022-11-15T00:38:41;25.97;;;15.17;;
13228;SDS011;6680;53.220;10.402;2022-11-15T00:41:08;23.97;;;13.97;;
13228;SDS011;6680;53.220;10.402;2022-11-15T00:43:35;21.23;;;11.60;;
13228;SDS011;6680;53.220;10.402;2022-11-15T00:46:02;18.50;;;11.53;;
13228;SDS011;6680;53.220;10.402;2022-11-15T00:48:29;25.23;;;12.60;;
13228;SDS011;6680;53.220;10.402;2022-11-15T00:50:56;24.07;;;13.60;;
13228;SDS011;6680;53.220;10.402;2022-11-15T00:53:23;20.40;;;12.90;;
13228;SDS011;6680;53.220;10.402;2022-11-15T00:55:51;21.10;;;12.23;;
13228;SDS011;6680;53.220;10.402;2022-11-15T00:58:18;21.83;;;11.93;;
13228;SDS011;6680;53.220;10.402;2022-11-15T01:00:44;20.23;;;12.83;;
13228;SDS011;6680;53.220;10.402;2022-11-15T01:03:11;22.43;;;12.97;;
13228;SDS011;6680;53.220;10.402;2022-11-15T01:05:38;21.13;;;11.87;;
13228;SDS011;6680;53.220;10.402;2022-11-15T01:08:04;22.07;;;11.67;;
13228;SDS011;6680;53.220;10.402;2022-11-15T01:10:31;19.73;;;11.30;;
13228;SDS011;6680;53.220;10.402;2022-11-15T01:13:00;20.80;;;12.40;;
13228;SDS011;6680;53.220;10.402;2022-11-15T01:15:27;20.20;;;11.80;;
13228;SDS011;6680;53.220;10.402;2022-11-15T01:17:54;19.73;;;11.47;;
13228;SDS011;6680;53.220;10.402;2022-11-15T01:20:20;18.17;;;11.80;;
13228;SDS011;6680;53.220;10.402;2022-11-15T01:22:47;20.60;;;12.33;;
13228;SDS011;6680;53.220;10.402;2022-11-15T01:25:14;20.30;;;12.10;;
13228;SDS011;6680;53.220;10.402;2022-11-15T01:27:41;20.67;;;12.77;;
13228;SDS011;6680;53.220;10.402;2022-11-15T01:30:09;21.53;;;11.67;;
13228;SDS011;6680;53.220;10.402;2022-11-15T01:32:36;17.33;;;11.13;;
13228;SDS011;6680;53.220;10.402;2022-11-15T01:35:03;16.97;;;10.67;;
13228;SDS011;6680;53.220;10.402;2022-11-15T01:37:30;18.90;;;11.40;;
13228;SDS011;6680;53.220;10.402;2022-11-15T01:39:57;17.97;;;11.80;;
13228;SDS011;6680;53.220;10.402;2022-11-15T01:42:23;21.23;;;12.17;;
13228;SDS011;6680;53.220;10.402;2022-11-15T01:44:50;20.33;;;11.67;;
13228;SDS011;6680;53.220;10.402;2022-11-15T01:47:21;18.63;;;11.80;;
13228;SDS011;6680;53.220;10.402;2022-11-15T01:49:52;19.23;;;10.73;;
13228;SDS011;6680;53.220;10.402;2022-11-15T01:52:22;18.13;;;10.97;;
13228;SDS011;6680;53.220;10.402;2022-11-15T01:54:53;18.00;;;11.23;;
13228;SDS011;6680;53.220;10.402;2022-11-15T01:57:24;18.00;;;10.13;;
13228;SDS011;6680;53.220;10.402;2022-11-15T01:59:51;17.63;;;10.87;;
13228;SDS011;6680;53.220;10.402;2022-11-15T02:02:18;18.40;;;10.53;;
13228;SDS011;6680;53.220;10.402;2022-11-15T02:04:46;21.67;;;12.23;;
13228;SDS011;6680;53.220;10.402;2022-11-15T02:07:15;18.33;;;10.93;;
13228;SDS011;6680;53.220;10.402;2022-11-15T02:09:43;21.00;;;11.13;;
13228;SDS011;6680;53.220;10.402;2022-11-15T02:12:11;15.20;;;9.87;;
13228;SDS011;6680;53.220;10.402;2022-11-15T02:14:41;20.20;;;10.80;;
13228;SDS011;6680;53.220;10.402;2022-11-15T02:17:13;20.53;;;10.67;;
13228;SDS011;6680;53.220;10.402;2022-11-15T02:22:56;19.87;;;10.23;;
13228;SDS011;6680;53.220;10.402;2022-11-15T02:25:38;20.23;;;11.93;;
13228;SDS011;6680;53.220;10.402;2022-11-15T02:28:26;21.77;;;10.90;;
13228;SDS011;6680;53.220;10.402;2022-11-15T02:31:04;15.43;;;9.90;;
13228;SDS011;6680;53.220;10.402;2022-11-15T02:33:39;20.80;;;11.17;;
13228;SDS011;6680;53.220;10.402;2022-11-15T02:36:18;19.30;;;11.67;;
13228;SDS011;6680;53.220;10.402;2022-11-15T02:38:57;21.37;;;13.00;;
13228;SDS011;6680;53.220;10.402;2022-11-15T02:41:29;17.00;;;10.73;;
13228;SDS011;6680;53.220;10.402;2022-11-15T02:44:06;23.47;;;12.27;;
13228;SDS011;6680;53.220;10.402;2022-11-15T02:46:38;20.00;;;11.77;;
13228;SDS011;6680;53.220;10.402;2022-11-15T02:49:27;21.27;;;10.70;;
13228;SDS011;6680;53.220;10.402;2022-11-15T02:51:57;21.53;;;10.93;;
13228;SDS011;6680;53.220;10.402;2022-11-15T02:54:24;19.83;;;10.43;;
13228;SDS011;6680;53.220;10.402;2022-11-15T02:56:53;19.50;;;12.03;;
13228;SDS011;6680;53.220;10.402;2022-11-15T02:59:33;21.47;;;10.47;;
13228;SDS011;6680;53.220;10.402;2022-11-15T03:02:26;21.07;;;12.07;;
13228;SDS011;6680;53.220;10.402;2022-11-15T03:05:03;18.83;;;11.17;;
13228;SDS011;6680;53.220;10.402;2022-11-15T03:07:39;18.43;;;10.93;;
13228;SDS011;6680;53.220;10.402;2022-11-15T03:10:12;20.53;;;10.73;;
13228;SDS011;6680;53.220;10.402;2022-11-15T03:12:45;19.97;;;10.90;;
13228;SDS011;6680;53.220;10.402;2022-11-15T03:15:17;19.33;;;11.53;;
13228;SDS011;6680;53.220;10.402;2022-11-15T03:17:49;15.33;;;9.97;;
13228;SDS011;6680;53.220;10.402;2022-11-15T03:20:19;22.23;;;11.40;;
13228;SDS011;6680;53.220;10.402;2022-11-15T03:22:46;16.73;;;9.53;;
13228;SDS011;6680;53.220;10.402;2022-11-15T03:25:16;20.10;;;11.20;;
13228;SDS011;6680;53.220;10.402;2022-11-15T03:27:46;19.57;;;10.63;;
13228;SDS011;6680;53.220;10.402;2022-11-15T03:30:16;21.20;;;12.27;;
13228;SDS011;6680;53.220;10.402;2022-11-15T03:32:44;18.63;;;10.60;;
13228;SDS011;6680;53.220;10.402;2022-11-15T03:35:17;17.03;;;10.90;;
13228;SDS011;6680;53.220;10.402;2022-11-15T03:37:48;18.10;;;9.93;;
13228;SDS011;6680;53.220;10.402;2022-11-15T03:40:17;17.57;;;9.80;;
13228;SDS011;6680;53.220;10.402;2022-11-15T03:42:51;15.90;;;10.20;;
13228;SDS011;6680;53.220;10.402;2022-11-15T03:45:27;13.90;;;9.27;;
13228;SDS011;6680;53.220;10.402;2022-11-15T03:47:58;17.93;;;10.20;;
13228;SDS011;6680;53.220;10.402;2022-11-15T03:50:29;17.83;;;10.03;;
13228;SDS011;6680;53.220;10.402;2022-11-15T03:52:55;17.93;;;9.80;;
13228;SDS011;6680;53.220;10.402;2022-11-15T03:55:23;20.73;;;9.97;;
13228;SDS011;6680;53.220;10.402;2022-11-15T03:57:51;21.57;;;10.87;;
13228;SDS011;6680;53.220;10.402;2022-11-15T04:00:20;14.90;;;9.60;;
13228;SDS011;6680;53.220;10.402;2022-11-15T04:02:47;16.73;;;9.70;;
13228;SDS011;6680;53.220;10.402;2022-11-15T04:05:13;15.30;;;9.67;;
13228;SDS011;6680;53.220;10.402;2022-11-15T04:07:41;15.57;;;9.77;;
13228;SDS011;6680;53.220;10.402;2022-11-15T04:10:08;13.70;;;9.23;;
13228;SDS011;6680;53.220;10.402;2022-11-15T04:12:37;17.73;;;11.07;;
13228;SDS011;6680;53.220;10.402;2022-11-15T04:15:08;15.13;;;9.33;;
13228;SDS011;6680;53.220;10.402;2022-11-15T04:17:39;17.93;;;10.70;;
13228;SDS011;6680;53.220;10.402;2022-11-15T04:20:08;12.97;;;9.23;;
13228;SDS011;6680;53.220;10.402;2022-11-15T04:22:56;15.97;;;9.70;;
13228;SDS011;6680;53.220;10.402;2022-11-15T04:25:41;17.80;;;10.30;;
13228;SDS011;6680;53.220;10.402;2022-11-15T04:28:08;17.00;;;9.97;;
13228;SDS011;6680;53.220;10.402;2022-11-15T04:30:35;16.80;;;9.23;;
13228;SDS011;6680;53.220;10.402;2022-11-15T04:33:02;14.90;;;9.10;;
13228;SDS011;6680;53.220;10.402;2022-11-15T04:35:29;16.63;;;9.37;;
13228;SDS011;6680;53.220;10.402;2022-11-15T04:37:57;15.83;;;8.67;;
13228;SDS011;6680;53.220;10.402;2022-11-15T04:40:23;18.83;;;10.27;;
13228;SDS011;6680;53.220;10.402;2022-11-15T04:42:50;17.23;;;9.50;;
13228;SDS011;6680;53.220;10.402;2022-11-15T04:45:16;14.43;;;8.57;;
13228;SDS011;6680;53.220;10.402;2022-11-15T04:47:43;17.13;;;10.67;;
13228;SDS011;6680;53.220;10.402;2022-11-15T04:50:11;17.57;;;9.97;;
13228;SDS011;6680;53.220;10.402;2022-11-15T04:52:38;17.00;;;9.17;;
13228;SDS011;6680;53.220;10.402;2022-11-15T04:55:07;18.00;;;9.97;;
13228;SDS011;6680;53.220;10.402;2022-11-15T04:57:34;19.70;;;8.90;;
13228;SDS011;6680;53.220;10.402;2022-11-15T05:00:02;15.73;;;10.00;;
13228;SDS011;6680;53.220;10.402;2022-11-15T05:02:29;17.17;;;8.60;;
13228;SDS011;6680;53.220;10.402;2022-11-15T05:05:16;14.17;;;9.83;;
13228;SDS011;6680;53.220;10.402;2022-11-15T05:07:42;18.17;;;10.00;;
13228;SDS011;6680;53.220;10.402;2022-11-15T05:10:10;17.37;;;10.37;;
13228;SDS011;6680;53.220;10.402;2022-11-15T05:12:36;14.40;;;10.17;;
13228;SDS011;6680;53.220;10.402;2022-11-15T05:15:04;16.90;;;9.60;;
13228;SDS011;6680;53.220;10.402;2022-11-15T05:17:31;13.43;;;9.47;;
13228;SDS011;6680;53.220;10.402;2022-11-15T05:19:58;15.80;;;9.90;;
13228;SDS011;6680;53.220;10.402;2022-11-15T05:22:24;18.90;;;9.83;;
13228;SDS011;6680;53.220;10.402;2022-11-15T05:24:51;17.47;;;10.07;;
13228;SDS011;6680;53.220;10.402;2022-11-15T05:27:19;14.80;;;8.97;;
13228;SDS011;6680;53.220;10.402;2022-11-15T05:29:46;15.60;;;9.77;;
13228;SDS011;6680;53.220;10.402;2022-11-15T05:32:12;16.23;;;10.50;;
13228;SDS011;6680;53.220;10.402;2022-11-15T05:34:39;17.90;;;9.23;;
13228;SDS011;6680;53.220;10.402;2022-11-15T05:37:06;15.70;;;9.73;;
13228;SDS011;6680;53.220;10.402;2022-11-15T05:39:33;20.23;;;11.30;;
13228;SDS011;6680;53.220;10.402;2022-11-15T05:42:01;17.97;;;10.37;;
13228;SDS011;6680;53.220;10.402;2022-11-15T05:44:35;18.80;;;10.97;;
13228;SDS011;6680;53.220;10.402;2022-11-15T05:47:03;17.00;;;9.90;;
13228;SDS011;6680;53.220;10.402;2022-11-15T05:49:33;15.97;;;9.57;;
13228;SDS011;6680;53.220;10.402;2022-11-15T05:52:03;20.63;;;10.17;;
13228;SDS011;6680;53.220;10.402;2022-11-15T05:54:32;18.60;;;10.60;;
13228;SDS011;6680;53.220;10.402;2022-11-15T05:57:01;18.60;;;9.60;;
13228;SDS011;6680;53.220;10.402;2022-11-15T05:59:28;15.53;;;10.67;;
13228;SDS011;6680;53.220;10.402;2022-11-15T06:01:57;15.97;;;9.73;;
13228;SDS011;6680;53.220;10.402;2022-11-15T06:04:24;14.43;;;9.33;;
13228;SDS011;6680;53.220;10.402;2022-11-15T06:06:51;15.13;;;9.90;;
13228;SDS011;6680;53.220;10.402;2022-11-15T06:09:18;17.30;;;9.97;;
13228;SDS011;6680;53.220;10.402;2022-11-15T06:11:44;17.13;;;9.90;;
13228;SDS011;6680;53.220;10.402;2022-11-15T06:14:11;15.40;;;9.97;;
13228;SDS011;6680;53.220;10.402;2022-11-15T06:16:37;15.50;;;10.53;;
13228;SDS011;6680;53.220;10.402;2022-11-15T06:19:06;19.07;;;11.03;;
13228;SDS011;6680;53.220;10.402;2022-11-15T06:21:33;18.03;;;11.03;;
13228;SDS011;6680;53.220;10.402;2022-11-15T06:24:00;15.97;;;9.50;;
13228;SDS011;6680;53.220;10.402;2022-11-15T06:26:27;15.67;;;9.70;;
13228;SDS011;6680;53.220;10.402;2022-11-15T06:28:53;16.40;;;10.00;;
13228;SDS011;6680;53.220;10.402;2022-11-15T06:31:20;19.27;;;10.10;;
13228;SDS011;6680;53.220;10.402;2022-11-15T06:33:47;17.77;;;10.07;;
13228;SDS011;6680;53.220;10.402;2022-11-15T06:36:15;16.93;;;8.97;;
13228;SDS011;6680;53.220;10.402;2022-11-15T06:38:43;16.30;;;10.23;;
13228;SDS011;6680;53.220;10.402;2022-11-15T06:41:10;16.77;;;10.70;;
13228;SDS011;6680;53.220;10.402;2022-11-15T06:43:38;17.63;;;10.67;;
13228;SDS011;6680;53.220;10.402;2022-11-15T06:46:05;17.03;;;9.90;;
13228;SDS011;6680;53.220;10.402;2022-11-15T06:48:33;19.33;;;11.30;;
13228;SDS011;6680;53.220;10.402;2022-11-15T06:51:01;18.57;;;10.40;;
13228;SDS011;6680;53.220;10.402;2022-11-15T06:53:31;18.53;;;11.33;;
13228;SDS011;6680;53.220;10.402;2022-11-15T06:55:58;16.63;;;9.97;;
13228;SDS011;6680;53.220;10.402;2022-11-15T06:58:26;13.30;;;8.87;;
13228;SDS011;6680;53.220;10.402;2022-11-15T07:00:53;17.27;;;9.73;;
13228;SDS011;6680;53.220;10.402;2022-11-15T07:03:24;16.37;;;9.63;;
13228;SDS011;6680;53.220;10.402;2022-11-15T07:05:51;14.67;;;9.07;;
13228;SDS011;6680;53.220;10.402;2022-11-15T07:08:19;19.23;;;10.00;;
13228;SDS011;6680;53.220;10.402;2022-11-15T07:10:47;16.00;;;10.60;;
13228;SDS011;6680;53.220;10.402;2022-11-15T07:13:14;14.03;;;9.87;;
13228;SDS011;6680;53.220;10.402;2022-11-15T07:15:41;19.87;;;10.43;;
13228;SDS011;6680;53.220;10.402;2022-11-15T07:18:07;16.43;;;10.47;;
13228;SDS011;6680;53.220;10.402;2022-11-15T07:20:34;16.83;;;9.00;;
13228;SDS011;6680;53.220;10.402;2022-11-15T07:23:01;15.33;;;9.07;;
13228;SDS011;6680;53.220;10.402;2022-11-15T07:25:28;16.77;;;9.37;;
13228;SDS011;6680;53.220;10.402;2022-11-15T07:27:56;13.83;;;8.97;;
13228;SDS011;6680;53.220;10.402;2022-11-15T07:30:24;15.07;;;9.67;;
13228;SDS011;6680;53.220;10.402;2022-11-15T07:32:52;13.43;;;8.90;;
13228;SDS011;6680;53.220;10.402;2022-11-15T07:35:19;15.07;;;9.53;;
13228;SDS011;6680;53.220;10.402;2022-11-15T07:37:52;19.17;;;10.03;;
13228;SDS011;6680;53.220;10.402;2022-11-15T07:40:19;15.53;;;8.77;;
13228;SDS011;6680;53.220;10.402;2022-11-15T07:42:46;14.93;;;9.10;;
13228;SDS011;6680;53.220;10.402;2022-11-15T07:45:20;12.63;;;8.87;;
13228;SDS011;6680;53.220;10.402;2022-11-15T07:47:47;14.97;;;9.10;;
13228;SDS011;6680;53.220;10.402;2022-11-15T07:50:15;13.90;;;9.60;;
13228;SDS011;6680;53.220;10.402;2022-11-15T07:52:42;16.13;;;9.83;;
13228;SDS011;6680;53.220;10.402;2022-11-15T07:55:08;16.80;;;10.07;;
13228;SDS011;6680;53.220;10.402;2022-11-15T07:57:35;12.60;;;9.33;;
13228;SDS011;6680;53.220;10.402;2022-11-15T08:00:03;13.80;;;9.47;;
13228;SDS011;6680;53.220;10.402;2022-11-15T08:02:32;17.13;;;10.57;;
13228;SDS011;6680;53.220;10.402;2022-11-15T08:04:59;16.60;;;10.00;;
13228;SDS011;6680;53.220;10.402;2022-11-15T08:07:27;13.97;;;8.53;;
13228;SDS011;6680;53.220;10.402;2022-11-15T08:09:55;14.37;;;9.33;;
13228;SDS011;6680;53.220;10.402;2022-11-15T08:12:21;14.80;;;9.87;;
13228;SDS011;6680;53.220;10.402;2022-11-15T08:14:48;14.40;;;9.10;;
13228;SDS011;6680;53.220;10.402;2022-11-15T08:17:15;17.20;;;10.00;;
13228;SDS011;6680;53.220;10.402;2022-11-15T08:19:43;14.20;;;8.53;;
13228;SDS011;6680;53.220;10.402;2022-11-15T08:22:10;15.97;;;9.40;;
13228;SDS011;6680;53.220;10.402;2022-11-15T08:24:37;13.47;;;9.53;;
13228;SDS011;6680;53.220;10.402;2022-11-15T08:27:03;13.93;;;9.40;;
13228;SDS011;6680;53.220;10.402;2022-11-15T08:29:30;12.60;;;8.40;;
13228;SDS011;6680;53.220;10.402;2022-11-15T08:31:57;16.07;;;9.37;;
13228;SDS011;6680;53.220;10.402;2022-11-15T08:34:23;14.10;;;9.00;;
13228;SDS011;6680;53.220;10.402;2022-11-15T08:36:51;17.67;;;9.40;;
13228;SDS011;6680;53.220;10.402;2022-11-15T08:39:18;14.93;;;8.57;;
13228;SDS011;6680;53.220;10.402;2022-11-15T08:41:45;13.30;;;8.90;;
13228;SDS011;6680;53.220;10.402;2022-11-15T08:44:11;15.77;;;10.13;;
13228;SDS011;6680;53.220;10.402;2022-11-15T08:46:38;15.50;;;9.43;;
13228;SDS011;6680;53.220;10.402;2022-11-15T08:49:05;13.27;;;8.73;;
13228;SDS011;6680;53.220;10.402;2022-11-15T08:51:31;13.43;;;8.60;;
13228;SDS011;6680;53.220;10.402;2022-11-15T08:53:59;16.57;;;9.23;;
13228;SDS011;6680;53.220;10.402;2022-11-15T08:56:26;13.33;;;8.83;;
13228;SDS011;6680;53.220;10.402;2022-11-15T08:58:53;12.80;;;9.10;;
13228;SDS011;6680;53.220;10.402;2022-11-15T09:01:20;15.73;;;9.40;;
13228;SDS011;6680;53.220;10.402;2022-11-15T09:03:47;14.97;;;9.00;;
13228;SDS011;6680;53.220;10.402;2022-11-15T09:06:14;13.00;;;8.80;;
13228;SDS011;6680;53.220;10.402;2022-11-15T09:08:40;13.33;;;8.30;;
13228;SDS011;6680;53.220;10.402;2022-11-15T09:11:09;13.47;;;8.27;;
13228;SDS011;6680;53.220;10.402;2022-11-15T09:13:37;11.07;;;7.63;;
13228;SDS011;6680;53.220;10.402;2022-11-15T09:16:04;13.00;;;8.57;;
13228;SDS011;6680;53.220;10.402;2022-11-15T09:18:31;16.20;;;8.77;;
13228;SDS011;6680;53.220;10.402;2022-11-15T09:20:58;12.83;;;8.77;;
13228;SDS011;6680;53.220;10.402;2022-11-15T09:23:27;15.27;;;9.70;;
13228;SDS011;6680;53.220;10.402;2022-11-15T09:25:57;14.63;;;9.33;;
13228;SDS011;6680;53.220;10.402;2022-11-15T09:28:26;10.43;;;7.80;;
13228;SDS011;6680;53.220;10.402;2022-11-15T09:30:55;15.07;;;9.17;;
13228;SDS011;6680;53.220;10.402;2022-11-15T09:33:23;11.50;;;8.53;;
13228;SDS011;6680;53.220;10.402;2022-11-15T09:35:50;13.67;;;8.93;;
13228;SDS011;6680;53.220;10.402;2022-11-15T09:38:17;13.57;;;8.23;;
13228;SDS011;6680;53.220;10.402;2022-11-15T09:40:43;16.00;;;10.37;;
13228;SDS011;6680;53.220;10.402;2022-11-15T09:43:24;12.97;;;8.10;;
13228;SDS011;6680;53.220;10.402;2022-11-15T09:45:57;9.27;;;7.60;;
13228;SDS011;6680;53.220;10.402;2022-11-15T09:48:34;13.27;;;7.97;;
13228;SDS011;6680;53.220;10.402;2022-11-15T09:51:17;10.23;;;7.87;;
13228;SDS011;6680;53.220;10.402;2022-11-15T09:53:51;10.40;;;7.10;;
13228;SDS011;6680;53.220;10.402;2022-11-15T09:56:25;10.00;;;6.87;;
13228;SDS011;6680;53.220;10.402;2022-11-15T09:58:57;10.27;;;6.87;;
13228;SDS011;6680;53.220;10.402;2022-11-15T10:01:36;11.67;;;8.10;;
13228;SDS011;6680;53.220;10.402;2022-11-15T10:04:10;9.93;;;6.23;;
13228;SDS011;6680;53.220;10.402;2022-11-15T10:06:38;9.80;;;6.70;;
13228;SDS011;6680;53.220;10.402;2022-11-15T10:09:15;9.70;;;6.20;;
13228;SDS011;6680;53.220;10.402;2022-11-15T10:11:45;9.50;;;6.23;;
13228;SDS011;6680;53.220;10.402;2022-11-15T10:14:13;7.23;;;5.93;;
13228;SDS011;6680;53.220;10.402;2022-11-15T10:16:47;7.63;;;6.83;;
13228;SDS011;6680;53.220;10.402;2022-11-15T10:19:33;9.37;;;6.20;;
13228;SDS011;6680;53.220;10.402;2022-11-15T10:22:11;8.07;;;5.90;;
13228;SDS011;6680;53.220;10.402;2022-11-15T10:24:47;9.40;;;6.87;;
13228;SDS011;6680;53.220;10.402;2022-11-15T10:27:14;7.67;;;6.37;;
13228;SDS011;6680;53.220;10.402;2022-11-15T10:29:44;10.17;;;5.97;;
13228;SDS011;6680;53.220;10.402;2022-11-15T10:32:13;8.83;;;6.37;;
13228;SDS011;6680;53.220;10.402;2022-11-15T10:34:41;9.13;;;6.30;;
13228;SDS011;6680;53.220;10.402;2022-11-15T10:37:08;8.70;;;6.10;;
13228;SDS011;6680;53.220;10.402;2022-11-15T10:39:35;9.70;;;5.87;;
13228;SDS011;6680;53.220;10.402;2022-11-15T10:42:14;7.93;;;6.00;;
13228;SDS011;6680;53.220;10.402;2022-11-15T10:44:44;9.80;;;6.23;;
13228;SDS011;6680;53.220;10.402;2022-11-15T10:47:29;9.10;;;6.13;;
13228;SDS011;6680;53.220;10.402;2022-11-15T10:49:59;8.47;;;5.63;;
13228;SDS011;6680;53.220;10.402;2022-11-15T10:52:28;8.67;;;6.40;;
13228;SDS011;6680;53.220;10.402;2022-11-15T10:54:58;6.97;;;5.40;;
13228;SDS011;6680;53.220;10.402;2022-11-15T10:57:29;10.00;;;6.23;;
13228;SDS011;6680;53.220;10.402;2022-11-15T11:00:00;8.60;;;6.23;;
13228;SDS011;6680;53.220;10.402;2022-11-15T11:02:31;6.80;;;5.33;;
13228;SDS011;6680;53.220;10.402;2022-11-15T11:05:00;6.67;;;5.53;;
13228;SDS011;6680;53.220;10.402;2022-11-15T11:07:29;8.87;;;5.57;;
13228;SDS011;6680;53.220;10.402;2022-11-15T11:09:58;8.53;;;6.03;;
13228;SDS011;6680;53.220;10.402;2022-11-15T11:12:27;9.90;;;6.23;;
13228;SDS011;6680;53.220;10.402;2022-11-15T11:14:55;7.13;;;5.20;;
13228;SDS011;6680;53.220;10.402;2022-11-15T11:17:26;8.53;;;5.40;;
13228;SDS011;6680;53.220;10.402;2022-11-15T11:20:02;8.63;;;5.80;;
13228;SDS011;6680;53.220;10.402;2022-11-15T11:22:37;7.97;;;5.97;;
13228;SDS011;6680;53.220;10.402;2022-11-15T11:25:24;6.70;;;5.33;;
13228;SDS011;6680;53.220;10.402;2022-11-15T11:28:05;8.47;;;5.47;;
13228;SDS011;6680;53.220;10.402;2022-11-15T11:30:44;9.03;;;5.20;;
13228;SDS011;6680;53.220;10.402;2022-11-15T11:33:19;8.33;;;6.23;;
13228;SDS011;6680;53.220;10.402;2022-11-15T11:35:50;9.20;;;5.40;;
13228;SDS011;6680;53.220;10.402;2022-11-15T11:38:33;7.40;;;5.40;;
13228;SDS011;6680;53.220;10.402;2022-11-15T11:41:07;6.17;;;5.57;;
13228;SDS011;6680;53.220;10.402;2022-11-15T11:43:42;6.43;;;4.97;;
13228;SDS011;6680;53.220;10.402;2022-11-15T11:46:24;8.17;;;4.83;;
13228;SDS011;6680;53.220;10.402;2022-11-15T11:49:08;7.27;;;4.97;;
13228;SDS011;6680;53.220;10.402;2022-11-15T11:51:36;7.40;;;5.40;;
13228;SDS011;6680;53.220;10.402;2022-11-15T11:54:10;6.00;;;4.87;;
13228;SDS011;6680;53.220;10.402;2022-11-15T11:56:41;7.00;;;5.00;;
13228;SDS011;6680;53.220;10.402;2022-11-15T11:59:10;6.90;;;5.03;;
13228;SDS011;6680;53.220;10.402;2022-11-15T12:01:46;6.23;;;5.00;;
13228;SDS011;6680;53.220;10.402;2022-11-15T12:04:16;6.03;;;4.73;;
13228;SDS011;6680;53.220;10.402;2022-11-15T12:06:46;7.00;;;4.80;;
13228;SDS011;6680;53.220;10.402;2022-11-15T12:09:17;8.97;;;5.37;;
13228;SDS011;6680;53.220;10.402;2022-11-15T12:11:50;9.13;;;5.13;;
13228;SDS011;6680;53.220;10.402;2022-11-15T12:14:24;5.33;;;4.70;;
13228;SDS011;6680;53.220;10.402;2022-11-15T12:16:55;6.53;;;4.97;;
13228;SDS011;6680;53.220;10.402;2022-11-15T12:19:24;8.20;;;4.90;;
13228;SDS011;6680;53.220;10.402;2022-11-15T12:21:53;6.40;;;4.70;;
13228;SDS011;6680;53.220;10.402;2022-11-15T12:24:26;6.80;;;4.70;;
13228;SDS011;6680;53.220;10.402;2022-11-15T12:26:58;6.20;;;4.63;;
13228;SDS011;6680;53.220;10.402;2022-11-15T12:29:33;6.80;;;4.60;;
13228;SDS011;6680;53.220;10.402;2022-11-15T12:32:05;11.43;;;4.67;;
13228;SDS011;6680;53.220;10.402;2022-11-15T12:34:51;6.63;;;5.30;;
13228;SDS011;6680;53.220;10.402;2022-11-15T12:40:26;6.10;;;4.73;;
13228;SDS011;6680;53.220;10.402;2022-11-15T12:46:10;6.87;;;4.70;;
13228;SDS011;6680;53.220;10.402;2022-11-15T12:54:52;7.03;;;4.30;;
13228;SDS011;6680;53.220;10.402;2022-11-15T12:57:38;6.07;;;5.00;;
13228;SDS011;6680;53.220;10.402;2022-11-15T13:03:17;4.97;;;4.30;;
13228;SDS011;6680;53.220;10.402;2022-11-15T13:08:37;7.20;;;5.23;;
13228;SDS011;6680;53.220;10.402;2022-11-15T13:19:56;8.40;;;4.67;;
13228;SDS011;6680;53.220;10.402;2022-11-15T13:22:25;10.57;;;5.43;;
13228;SDS011;6680;53.220;10.402;2022-11-15T13:25:27;7.57;;;5.07;;
13228;SDS011;6680;53.220;10.402;2022-11-15T13:28:26;6.37;;;4.50;;
13228;SDS011;6680;53.220;10.402;2022-11-15T13:30:58;6.47;;;4.97;;
13228;SDS011;6680;53.220;10.402;2022-11-15T13:33:28;6.23;;;5.27;;
13228;SDS011;6680;53.220;10.402;2022-11-15T13:35:57;7.97;;;4.83;;
13228;SDS011;6680;53.220;10.402;2022-11-15T13:38:26;5.00;;;4.50;;
13228;SDS011;6680;53.220;10.402;2022-11-15T13:40:56;5.73;;;4.80;;
13228;SDS011;6680;53.220;10.402;2022-11-15T13:43:28;6.97;;;5.43;;
13228;SDS011;6680;53.220;10.402;2022-11-15T13:46:09;6.37;;;4.60;;
13228;SDS011;6680;53.220;10.402;2022-11-15T13:48:38;8.00;;;5.50;;
13228;SDS011;6680;53.220;10.402;2022-11-15T13:51:06;10.00;;;4.87;;
13228;SDS011;6680;53.220;10.402;2022-11-15T13:53:40;7.10;;;4.73;;
13228;SDS011;6680;53.220;10.402;2022-11-15T13:56:13;5.30;;;4.80;;
13228;SDS011;6680;53.220;10.402;2022-11-15T13:58:41;6.17;;;4.43;;
13228;SDS011;6680;53.220;10.402;2022-11-15T14:01:11;6.13;;;4.83;;
13228;SDS011;6680;53.220;10.402;2022-11-15T14:03:46;5.97;;;4.97;;
13228;SDS011;6680;53.220;10.402;2022-11-15T14:06:17;5.70;;;4.10;;
13228;SDS011;6680;53.220;10.402;2022-11-15T14:08:57;6.27;;;4.40;;
13228;SDS011;6680;53.220;10.402;2022-11-15T14:11:51;6.40;;;4.63;;
13228;SDS011;6680;53.220;10.402;2022-11-15T14:14:20;6.10;;;5.07;;
13228;SDS011;6680;53.220;10.402;2022-11-15T14:16:48;6.60;;;4.90;;
13228;SDS011;6680;53.220;10.402;2022-11-15T14:19:39;7.80;;;4.53;;
13228;SDS011;6680;53.220;10.402;2022-11-15T14:22:10;5.33;;;4.43;;
13228;SDS011;6680;53.220;10.402;2022-11-15T14:24:42;5.30;;;4.77;;
13228;SDS011;6680;53.220;10.402;2022-11-15T14:27:25;5.77;;;4.70;;
13228;SDS011;6680;53.220;10.402;2022-11-15T14:29:54;5.97;;;4.43;;
13228;SDS011;6680;53.220;10.402;2022-11-15T14:32:22;4.73;;;4.30;;
13228;SDS011;6680;53.220;10.402;2022-11-15T14:34:53;5.80;;;4.67;;
13228;SDS011;6680;53.220;10.402;2022-11-15T14:37:22;7.40;;;5.03;;
13228;SDS011;6680;53.220;10.402;2022-11-15T14:39:50;7.13;;;5.27;;
13228;SDS011;6680;53.220;10.402;2022-11-15T14:42:18;7.77;;;5.93;;
13228;SDS011;6680;53.220;10.402;2022-11-15T14:44:46;7.73;;;5.07;;
13228;SDS011;6680;53.220;10.402;2022-11-15T14:47:13;8.93;;;5.47;;
13228;SDS011;6680;53.220;10.402;2022-11-15T14:49:40;5.93;;;4.70;;
13228;SDS011;6680;53.220;10.402;2022-11-15T14:52:11;5.37;;;4.70;;
13228;SDS011;6680;53.220;10.402;2022-11-15T14:54:49;6.77;;;4.80;;
13228;SDS011;6680;53.220;10.402;2022-11-15T14:57:15;6.43;;;5.03;;
13228;SDS011;6680;53.220;10.402;2022-11-15T14:59:42;6.90;;;5.13;;
13228;SDS011;6680;53.220;10.402;2022-11-15T15:02:11;7.63;;;5.87;;
13228;SDS011;6680;53.220;10.402;2022-11-15T15:04:43;5.30;;;4.57;;
13228;SDS011;6680;53.220;10.402;2022-11-15T15:07:09;6.80;;;5.80;;
13228;SDS011;6680;53.220;10.402;2022-11-15T15:09:36;7.07;;;5.20;;
13228;SDS011;6680;53.220;10.402;2022-11-15T15:12:03;8.10;;;4.83;;
13228;SDS011;6680;53.220;10.402;2022-11-15T15:14:31;7.73;;;5.77;;
13228;SDS011;6680;53.220;10.402;2022-11-15T15:16:58;7.63;;;5.27;;
13228;SDS011;6680;53.220;10.402;2022-11-15T15:19:26;5.50;;;4.63;;
13228;SDS011;6680;53.220;10.402;2022-11-15T15:21:53;6.80;;;4.70;;